Colchester, VT

03:16 EST le 29 janvier 2015 (GMT -0500)
South Bay Circle, Malletts Bay | Change Station
CLOSE
Current Station
Stations météorologiques personnelles
Location: Colchester, VT
Altitude: 100 ft
Stations météo à proximité

Alt. 100 ft 44.54 °N, 73.21 °W | Updated 58 seconds ago

Clear
Ciel dégagé
-1.1 ° F
Paraît -1 ° F
N
0.0
Vent Variable Vent de ESE
Gusts 2.0 mph

Aujourd'hui
Haut(e) -- | Bas -- ° F
--% Risque de précip.
Hier
Haut(e) -- | Bas -- ° F
Precip. -- pouce
7:14 AM 4:57 PM
Lune gibbeuse croissante, 72% visible
Pression 30.35 pouce
Visibilité 10.0 Miles terrestres
Nuages Ciel dégagé
Refroidissement éolien -1 ° F
Point de rosée -22 ° F
Humidité 36%
Précipitations 0.00 pouce
Profondeur de la couche neigeuse Non disponible.
UV 0.0 sur 12
Pollen .10 sur 12
Qualité de l'air Non disponible.
Flu Activity Non disponible.
METAR KBTV 290754Z 14003KT 10SM CLR M19/M22 A3033 RMK AO2 SLP277 T11891217

More Conditions Fewer Conditions

Pression 30.35 pouce
Visibilité 10.0 Miles terrestres
Nuages Ciel dégagé
Refroidissement éolien -1 ° F
Point de rosée -22 ° F
Humidité 36%
Précipitations 0.00 pouce
Profondeur de la couche neigeuse Non disponible.
UV 0.0 sur 12
Pollen .10 sur 12
Qualité de l'air Non disponible.
Flu Activity Non disponible.
METAR KBTV 290754Z 14003KT 10SM CLR M19/M22 A3033 RMK AO2 SLP277 T11891217

More Conditions Fewer Conditions

10-Day Weather Forecast

Almanac

Astronomie

Jan. 29, 2015 Lever Coucher
Temps réel
Crépuscule civil
Crépuscule nautique
Crépuscule astronomique
Lune
Durée de lumière visible
Longueur du jour
Tomorrow will be .
, % of the Moon is Illuminated

Extrêmes aujourd'hui

State Highs State Lows

Community

WunderPhotos

Upload Photos

1,791,387 Photos téléchargées !

WunderBlogs® & News

Nearby

Qualité de l'air

  Qualité de l'air Indice de la qualité de l'air Polluant
Not available.

Épaisseur de neige

Station Depth Altitude

Activité sismique

Ville Distance Mag. Time & Date
Minimum magnitude displayed is 2.5.

Températures des eaux côtières

Lieu Température

Stations météo à proximité